createdAt,value
2022-08-17T00:00:15.758Z,999.90
2022-08-17T00:03:06.771Z,999.90
2022-08-17T00:05:37.650Z,999.90
2022-08-17T00:08:06.193Z,999.90
2022-08-17T00:10:34.480Z,999.90
2022-08-17T00:13:07.270Z,999.90
2022-08-17T00:15:35.163Z,999.90
2022-08-17T00:18:04.793Z,999.90
2022-08-17T00:20:52.545Z,764.23
2022-08-17T00:23:20.504Z,788.20
2022-08-17T00:25:48.745Z,847.47
2022-08-17T00:28:17.579Z,831.87
2022-08-17T00:30:53.125Z,999.90
2022-08-17T00:33:26.122Z,822.30
2022-08-17T00:35:54.885Z,780.80
2022-08-17T00:38:23.714Z,999.90
2022-08-17T00:40:55.982Z,999.90
2022-08-17T00:43:32.447Z,999.90
2022-08-17T00:46:02.011Z,999.90
2022-08-17T00:48:32.413Z,825.77
2022-08-17T00:51:07.922Z,854.93
2022-08-17T00:53:43.537Z,801.37
2022-08-17T00:56:18.496Z,85.00
2022-08-17T00:58:46.680Z,999.90
2022-08-17T01:01:21.169Z,999.90
2022-08-17T01:03:52.693Z,999.90
2022-08-17T01:06:24.923Z,999.90
2022-08-17T01:08:57.608Z,999.90
2022-08-17T01:11:26.281Z,999.90
2022-08-17T01:13:54.488Z,999.90
2022-08-17T01:16:25.383Z,544.67
2022-08-17T01:18:58.326Z,776.27
2022-08-17T01:21:34.368Z,844.47
2022-08-17T01:24:04.274Z,773.43
2022-08-17T01:26:34.101Z,682.50
2022-08-17T01:29:03.895Z,465.53
2022-08-17T01:31:37.052Z,447.70
2022-08-17T01:34:08.671Z,547.17
2022-08-17T01:36:37.202Z,541.80
2022-08-17T01:39:10.475Z,666.17
2022-08-17T01:41:40.972Z,779.70
2022-08-17T01:44:12.629Z,809.20
2022-08-17T01:46:40.385Z,684.20
2022-08-17T01:49:09.684Z,599.60
2022-08-17T01:51:38.708Z,399.60
2022-08-17T01:54:12.630Z,571.50
2022-08-17T01:56:47.335Z,679.00
2022-08-17T01:59:15.944Z,792.43
2022-08-17T02:01:44.730Z,805.07
2022-08-17T02:04:13.618Z,684.53
2022-08-17T02:06:52.431Z,711.87
2022-08-17T02:09:25.525Z,596.07
2022-08-17T02:11:54.570Z,722.07
2022-08-17T02:14:23.368Z,889.27
2022-08-17T02:16:51.845Z,896.17
2022-08-17T02:19:19.675Z,979.93
2022-08-17T02:21:50.001Z,993.97
2022-08-17T02:25:00.187Z,857.00
2022-08-17T02:27:10.464Z,710.13
2022-08-17T02:29:38.565Z,692.67
2022-08-17T02:32:06.809Z,617.93
2022-08-17T02:34:34.585Z,451.03
2022-08-17T02:37:02.333Z,874.97
2022-08-17T02:39:30.089Z,347.33
2022-08-17T02:42:02.033Z,867.97
2022-08-17T02:44:39.957Z,724.47
2022-08-17T02:47:09.984Z,487.20
2022-08-17T02:49:38.466Z,804.20
2022-08-17T02:52:08.215Z,742.50
2022-08-17T02:54:41.648Z,603.57
2022-08-17T02:57:10.714Z,540.10
2022-08-17T02:59:41.599Z,629.23
2022-08-17T03:02:12.867Z,672.43
2022-08-17T03:04:40.626Z,598.63
2022-08-17T03:07:08.389Z,619.57
2022-08-17T03:09:36.149Z,689.07
2022-08-17T03:12:09.051Z,648.53
2022-08-17T03:14:41.655Z,648.53
2022-08-17T03:17:11.300Z,674.00
2022-08-17T03:19:45.214Z,660.80
2022-08-17T03:22:36.128Z,760.07
2022-08-17T03:25:00.722Z,612.93
2022-08-17T03:27:28.821Z,635.93
2022-08-17T03:29:57.918Z,747.97
2022-08-17T03:32:25.712Z,751.77
2022-08-17T03:34:59.130Z,610.10
2022-08-17T03:37:27.115Z,601.57
2022-08-17T03:39:55.076Z,454.50
2022-08-17T03:42:31.236Z,883.23
2022-08-17T03:45:03.023Z,255.27
2022-08-17T03:47:48.317Z,360.47
2022-08-17T03:50:34.461Z,558.77
2022-08-17T03:53:23.230Z,667.60
2022-08-17T03:56:08.542Z,614.13
2022-08-17T03:58:37.339Z,520.37
2022-08-17T04:01:08.028Z,644.67
2022-08-17T04:03:36.025Z,544.63
2022-08-17T04:06:03.848Z,427.97
2022-08-17T04:08:31.555Z,434.53
2022-08-17T04:11:01.253Z,876.60
2022-08-17T04:13:29.101Z,285.30
2022-08-17T04:15:57.306Z,296.83
2022-08-17T04:18:26.971Z,399.30
2022-08-17T04:20:54.952Z,844.83
2022-08-17T04:23:28.210Z,855.90
2022-08-17T04:25:55.945Z,373.43
2022-08-17T04:28:23.742Z,644.63
2022-08-17T04:30:51.880Z,587.20
2022-08-17T04:33:24.024Z,578.80
2022-08-17T04:35:55.345Z,431.47
2022-08-17T04:38:26.614Z,477.37
2022-08-17T04:41:13.359Z,468.17
2022-08-17T04:43:43.626Z,365.87
2022-08-17T04:46:13.314Z,580.77
2022-08-17T04:48:42.965Z,678.70
2022-08-17T04:51:14.600Z,697.27
2022-08-17T04:53:44.124Z,577.87
2022-08-17T04:56:17.039Z,830.73
2022-08-17T04:58:49.950Z,799.33
2022-08-17T05:01:23.614Z,999.90
2022-08-17T05:03:53.110Z,737.93
2022-08-17T05:06:22.968Z,753.30
2022-08-17T05:08:50.729Z,748.03
2022-08-17T05:11:18.540Z,999.90
2022-08-17T05:13:48.039Z,730.13
2022-08-17T05:16:15.767Z,742.70
2022-08-17T05:18:43.626Z,790.03
2022-08-17T05:21:11.506Z,133.10
2022-08-17T05:23:43.283Z,819.10
2022-08-17T05:26:25.712Z,824.63
2022-08-17T05:29:00.344Z,792.90
2022-08-17T05:31:31.892Z,239.23
2022-08-17T05:33:59.782Z,856.70
2022-08-17T05:36:37.870Z,847.83
2022-08-17T05:39:16.600Z,824.33
2022-08-17T05:41:47.650Z,785.73
2022-08-17T05:44:15.924Z,790.77
2022-08-17T05:46:49.017Z,124.10
2022-08-17T05:49:19.986Z,771.73
2022-08-17T05:52:15.012Z,999.90
2022-08-17T05:55:05.311Z,999.90
2022-08-17T05:57:43.396Z,999.90
2022-08-17T06:00:20.186Z,999.90
2022-08-17T06:03:06.023Z,999.90
2022-08-17T06:05:48.603Z,999.90
2022-08-17T06:08:24.748Z,999.90
2022-08-17T06:11:00.763Z,999.90
2022-08-17T06:13:48.594Z,999.90
2022-08-17T06:16:32.842Z,999.90
2022-08-17T06:19:11.374Z,999.90
2022-08-17T06:21:42.267Z,999.90
2022-08-17T06:24:29.643Z,999.90
2022-08-17T06:27:08.102Z,999.90
2022-08-17T06:29:43.885Z,999.90
2022-08-17T06:32:14.428Z,999.90
2022-08-17T06:34:44.245Z,999.90
2022-08-17T06:37:23.317Z,999.90
2022-08-17T06:39:58.834Z,999.90
2022-08-17T06:42:59.889Z,999.90
2022-08-17T06:45:32.118Z,999.90
2022-08-17T06:48:07.542Z,999.90
2022-08-17T06:50:37.900Z,999.90
2022-08-17T06:53:12.129Z,999.90
2022-08-17T06:55:47.095Z,999.90
2022-08-17T06:58:22.299Z,999.90
2022-08-17T07:00:58.116Z,999.90
2022-08-17T07:03:33.353Z,999.90
2022-08-17T07:06:07.474Z,999.90
2022-08-17T07:08:48.696Z,999.90
2022-08-17T07:11:20.278Z,999.90
2022-08-17T07:14:04.271Z,999.90
2022-08-17T07:16:38.751Z,999.90
2022-08-17T07:19:07.395Z,999.90
2022-08-17T07:21:50.970Z,999.90
2022-08-17T07:24:33.042Z,999.90
2022-08-17T07:27:07.375Z,999.90
2022-08-17T07:29:41.213Z,999.90
2022-08-17T07:32:11.375Z,999.90
2022-08-17T07:35:11.433Z,999.90
2022-08-17T07:37:41.004Z,999.90
2022-08-17T07:40:32.059Z,999.90
2022-08-17T07:43:22.018Z,999.90
2022-08-17T07:46:36.754Z,999.90
2022-08-17T07:49:23.387Z,999.90
2022-08-17T07:51:58.079Z,999.90
2022-08-17T07:54:31.704Z,999.90
2022-08-17T07:57:01.646Z,999.90
2022-08-17T07:59:33.399Z,999.90
2022-08-17T08:02:28.955Z,999.90
2022-08-17T08:05:03.329Z,999.90
2022-08-17T08:07:42.359Z,999.90
2022-08-17T08:10:14.808Z,999.90
2022-08-17T08:12:44.430Z,999.90
2022-08-17T08:15:17.711Z,999.90
2022-08-17T08:17:57.534Z,999.90
2022-08-17T08:20:51.509Z,999.90
2022-08-17T08:23:33.639Z,999.90
2022-08-17T08:26:18.787Z,999.90
2022-08-17T08:28:52.185Z,999.90
2022-08-17T08:31:31.480Z,999.90
2022-08-17T08:35:00.177Z,999.90
2022-08-17T08:37:16.616Z,999.90
2022-08-17T08:39:55.563Z,999.90
2022-08-17T08:42:32.906Z,999.90
2022-08-17T08:45:09.150Z,999.90
2022-08-17T08:47:56.201Z,999.90
2022-08-17T08:50:38.159Z,999.90
2022-08-17T08:53:30.104Z,999.90
2022-08-17T08:56:03.793Z,999.90
2022-08-17T08:58:42.006Z,999.90
2022-08-17T09:01:19.541Z,999.90
2022-08-17T09:04:19.998Z,999.90
2022-08-17T09:07:03.757Z,999.90
2022-08-17T09:09:43.700Z,999.90
2022-08-17T09:12:22.348Z,999.90
2022-08-17T09:14:55.437Z,999.90
2022-08-17T09:17:35.553Z,999.90
2022-08-17T09:20:13.712Z,999.90
2022-08-17T09:23:03.668Z,999.90
2022-08-17T09:25:36.265Z,999.90
2022-08-17T09:28:07.597Z,999.90
2022-08-17T09:30:42.251Z,999.90
2022-08-17T09:33:12.485Z,999.90
2022-08-17T09:35:46.279Z,999.90
2022-08-17T09:38:23.553Z,999.90
2022-08-17T09:41:00.108Z,999.90
2022-08-17T09:43:34.965Z,999.90
2022-08-17T09:46:08.872Z,999.90
2022-08-17T09:48:41.479Z,999.90
2022-08-17T09:51:14.817Z,999.90
2022-08-17T09:53:44.874Z,999.90
2022-08-17T09:56:27.356Z,999.90
2022-08-17T09:59:14.421Z,999.90
2022-08-17T10:01:50.572Z,999.90
2022-08-17T10:04:33.206Z,999.90
2022-08-17T10:07:12.016Z,999.90
2022-08-17T10:09:55.671Z,999.90
2022-08-17T10:12:34.408Z,999.90
2022-08-17T10:15:18.776Z,999.90
2022-08-17T10:18:07.666Z,999.90
2022-08-17T10:20:42.984Z,999.90
2022-08-17T10:23:35.924Z,999.90
2022-08-17T10:26:14.289Z,999.90
2022-08-17T10:28:48.304Z,999.90
2022-08-17T10:31:34.706Z,999.90
2022-08-17T10:34:21.739Z,999.90
2022-08-17T10:36:57.977Z,999.90
2022-08-17T10:39:50.413Z,999.90
2022-08-17T10:42:34.781Z,999.90
2022-08-17T10:45:07.621Z,999.90
2022-08-17T10:48:04.673Z,999.90
2022-08-17T10:51:00.337Z,999.90
2022-08-17T10:53:52.396Z,999.90
2022-08-17T10:56:23.195Z,999.90
2022-08-17T10:58:54.981Z,999.90
2022-08-17T11:01:58.293Z,999.90
2022-08-17T11:04:52.424Z,999.90
2022-08-17T11:07:34.134Z,999.90
2022-08-17T11:10:19.814Z,999.90
2022-08-17T11:12:55.301Z,999.90
2022-08-17T11:15:41.279Z,999.90
2022-08-17T11:18:22.454Z,999.90
2022-08-17T11:21:09.908Z,999.90
2022-08-17T11:23:54.271Z,999.90
2022-08-17T11:26:28.156Z,999.90
2022-08-17T11:29:00.012Z,999.90
2022-08-17T11:31:38.295Z,999.90
2022-08-17T11:34:15.103Z,999.90
2022-08-17T11:37:28.628Z,999.90
2022-08-17T11:40:34.516Z,999.90
2022-08-17T11:43:25.648Z,999.90
2022-08-17T11:46:15.504Z,999.90
2022-08-17T11:49:19.899Z,999.90
2022-08-17T11:52:08.360Z,999.90
2022-08-17T11:54:46.180Z,999.90
2022-08-17T11:58:05.844Z,999.90
2022-08-17T12:00:54.672Z,999.90
2022-08-17T12:03:54.278Z,999.90
2022-08-17T12:06:35.642Z,999.90
2022-08-17T12:09:13.309Z,999.90
2022-08-17T12:12:11.414Z,999.90
2022-08-17T12:15:08.524Z,999.90
2022-08-17T12:17:40.837Z,999.90
2022-08-17T12:20:15.540Z,999.90
2022-08-17T12:22:57.563Z,999.90
2022-08-17T12:25:34.741Z,999.90
2022-08-17T12:28:05.026Z,999.90
2022-08-17T12:30:36.482Z,999.90
2022-08-17T12:33:04.568Z,999.90
2022-08-17T12:35:35.367Z,999.90
2022-08-17T12:38:30.374Z,999.90
2022-08-17T12:40:58.442Z,999.90
2022-08-17T12:43:29.205Z,999.90
2022-08-17T12:46:01.054Z,999.90
2022-08-17T12:48:58.951Z,999.90
2022-08-17T12:51:29.122Z,999.90
2022-08-17T12:53:58.477Z,999.90
2022-08-17T12:56:26.286Z,999.90
2022-08-17T12:58:56.522Z,999.90
2022-08-17T13:01:25.963Z,999.90
2022-08-17T13:03:59.697Z,999.90
2022-08-17T13:06:30.181Z,999.90
2022-08-17T13:09:10.788Z,999.90
2022-08-17T13:11:48.084Z,999.90
2022-08-17T13:14:18.317Z,999.90
2022-08-17T13:16:52.761Z,999.90
2022-08-17T13:19:29.766Z,999.90
2022-08-17T13:22:12.536Z,999.90
2022-08-17T13:24:54.363Z,999.90
2022-08-17T13:27:25.013Z,999.90
2022-08-17T13:29:56.388Z,999.90
2022-08-17T13:32:35.851Z,999.90
2022-08-17T13:35:36.439Z,999.90
2022-08-17T13:38:10.930Z,999.90
2022-08-17T13:40:51.776Z,999.90
2022-08-17T13:43:45.231Z,999.90
2022-08-17T13:46:20.332Z,999.90
2022-08-17T13:48:59.419Z,999.90
2022-08-17T13:51:33.297Z,999.90
2022-08-17T13:54:19.991Z,999.90
2022-08-17T13:56:57.575Z,999.90
2022-08-17T13:59:55.309Z,999.90
2022-08-17T14:02:19.589Z,999.90
2022-08-17T14:04:49.005Z,999.90
2022-08-17T14:07:32.204Z,999.90
2022-08-17T14:10:03.690Z,999.90
2022-08-17T14:12:34.266Z,999.90
2022-08-17T14:15:02.659Z,999.90
2022-08-17T14:17:37.942Z,999.90
2022-08-17T14:20:09.200Z,999.90
2022-08-17T14:22:40.741Z,999.90
2022-08-17T14:25:10.709Z,999.90
2022-08-17T14:27:41.872Z,999.90
2022-08-17T14:30:24.309Z,999.90
2022-08-17T14:32:53.473Z,999.90
2022-08-17T14:35:23.913Z,999.90
2022-08-17T14:37:54.036Z,999.90
2022-08-17T14:40:24.569Z,999.90
2022-08-17T14:42:54.389Z,999.90
2022-08-17T14:45:30.293Z,999.90
2022-08-17T14:48:04.115Z,999.90
2022-08-17T14:50:35.318Z,999.90
2022-08-17T14:53:06.776Z,999.90
2022-08-17T14:55:35.451Z,999.90
2022-08-17T14:58:03.983Z,999.90
2022-08-17T15:00:31.901Z,999.90
2022-08-17T15:03:02.021Z,999.90
2022-08-17T15:05:36.649Z,999.90
2022-08-17T15:08:07.273Z,999.90
2022-08-17T15:10:35.937Z,999.90
2022-08-17T15:13:04.270Z,999.90
2022-08-17T15:15:32.428Z,999.90
2022-08-17T15:18:01.031Z,999.90
2022-08-17T15:20:30.627Z,999.90
2022-08-17T15:22:59.551Z,999.90
2022-08-17T15:25:31.913Z,999.90
2022-08-17T15:28:00.672Z,999.90
2022-08-17T15:30:29.971Z,999.90
2022-08-17T15:32:58.884Z,999.90
2022-08-17T15:35:29.796Z,999.90
2022-08-17T15:38:04.673Z,999.90
2022-08-17T15:40:38.700Z,999.90
2022-08-17T15:43:08.026Z,999.90
2022-08-17T15:45:35.974Z,999.90
2022-08-17T15:48:04.520Z,999.90
2022-08-17T15:50:32.459Z,999.90
2022-08-17T15:53:02.352Z,999.90
2022-08-17T15:55:32.293Z,999.90
2022-08-17T15:58:02.124Z,999.90
2022-08-17T16:00:30.450Z,999.90
2022-08-17T16:03:44.224Z,999.90
2022-08-17T16:05:50.178Z,999.90
2022-08-17T16:08:21.405Z,999.90
2022-08-17T16:10:50.379Z,999.90
2022-08-17T16:13:20.225Z,999.90
2022-08-17T16:15:57.123Z,999.90
2022-08-17T16:18:31.590Z,999.90
2022-08-17T16:21:21.480Z,999.90
2022-08-17T16:23:51.379Z,999.90
2022-08-17T16:26:19.545Z,999.90
2022-08-17T16:28:48.814Z,999.90
2022-08-17T16:31:16.650Z,999.90
2022-08-17T16:34:16.284Z,999.90
2022-08-17T16:36:33.380Z,999.90
2022-08-17T16:39:01.487Z,999.90
2022-08-17T16:41:44.453Z,999.90
2022-08-17T16:44:15.316Z,999.90
2022-08-17T16:46:45.998Z,999.90
2022-08-17T16:49:24.395Z,999.90
2022-08-17T16:52:03.982Z,999.90
2022-08-17T16:54:31.937Z,999.90
2022-08-17T16:57:00.234Z,999.90
2022-08-17T16:59:41.119Z,999.90
2022-08-17T17:02:14.179Z,999.90
2022-08-17T17:04:47.456Z,999.90
2022-08-17T17:07:34.907Z,999.90
2022-08-17T17:10:07.887Z,999.90
2022-08-17T17:13:03.196Z,999.90
2022-08-17T17:15:38.059Z,999.90
2022-08-17T17:18:07.112Z,999.90
2022-08-17T17:20:43.949Z,999.90
2022-08-17T17:23:26.066Z,999.90
2022-08-17T17:26:02.684Z,999.90
2022-08-17T17:28:39.052Z,999.90
2022-08-17T17:31:14.891Z,999.90
2022-08-17T17:33:47.384Z,999.90
2022-08-17T17:36:29.834Z,999.90
2022-08-17T17:39:04.106Z,999.90
2022-08-17T17:41:37.855Z,999.90
2022-08-17T17:44:12.097Z,999.90
2022-08-17T17:46:45.187Z,999.90
2022-08-17T17:49:18.159Z,999.90
2022-08-17T17:52:09.327Z,999.90
2022-08-17T17:54:53.974Z,999.90
2022-08-17T17:57:30.803Z,999.90
2022-08-17T18:00:04.723Z,999.90
2022-08-17T18:02:56.583Z,999.90
2022-08-17T18:05:35.495Z,999.90
2022-08-17T18:08:14.520Z,999.90
2022-08-17T18:11:04.712Z,999.90
2022-08-17T18:13:50.066Z,999.90
2022-08-17T18:16:19.450Z,999.90
2022-08-17T18:18:50.297Z,999.90
2022-08-17T18:21:21.766Z,999.90
2022-08-17T18:23:54.949Z,999.90
2022-08-17T18:26:55.197Z,999.90
2022-08-17T18:29:34.349Z,999.90
2022-08-17T18:32:19.852Z,999.90
2022-08-17T18:34:52.139Z,999.90
2022-08-17T18:37:42.593Z,999.90
2022-08-17T18:40:36.158Z,999.90
2022-08-17T18:43:10.533Z,999.90
2022-08-17T18:45:48.491Z,999.90
2022-08-17T18:48:40.596Z,999.90
2022-08-17T18:51:26.328Z,999.90
2022-08-17T18:54:20.558Z,999.90
2022-08-17T18:57:01.411Z,999.90
2022-08-17T18:59:41.318Z,999.90
2022-08-17T19:02:43.389Z,999.90
2022-08-17T19:05:28.532Z,999.90
2022-08-17T19:08:17.328Z,999.90
2022-08-17T19:10:54.759Z,999.90
2022-08-17T19:13:29.675Z,999.90
2022-08-17T19:16:13.821Z,999.90
2022-08-17T19:18:47.360Z,999.90
2022-08-17T19:21:20.641Z,999.90
2022-08-17T19:23:54.852Z,999.90
2022-08-17T19:26:54.747Z,999.90
2022-08-17T19:29:22.388Z,999.90
2022-08-17T19:31:51.285Z,999.90
2022-08-17T19:34:31.161Z,999.90
2022-08-17T19:37:06.830Z,999.90
2022-08-17T19:39:40.544Z,999.90
2022-08-17T19:42:14.634Z,999.90
2022-08-17T19:44:55.206Z,999.90
2022-08-17T19:47:53.872Z,999.90
2022-08-17T19:50:31.456Z,999.90
2022-08-17T19:53:07.223Z,999.90
2022-08-17T19:55:48.864Z,999.90
2022-08-17T19:58:31.356Z,999.90
2022-08-17T20:01:00.023Z,999.90
2022-08-17T20:03:35.142Z,999.90
2022-08-17T20:06:15.058Z,999.90
2022-08-17T20:08:52.053Z,999.90
2022-08-17T20:11:25.045Z,999.90
2022-08-17T20:14:01.181Z,999.90
2022-08-17T20:16:29.129Z,999.90
2022-08-17T20:19:01.067Z,999.90
2022-08-17T20:21:37.120Z,999.90
2022-08-17T20:24:15.261Z,999.90
2022-08-17T20:26:58.127Z,999.90
2022-08-17T20:29:37.656Z,999.90
2022-08-17T20:32:27.711Z,999.90
2022-08-17T20:35:07.319Z,999.90
2022-08-17T20:37:38.137Z,999.90
2022-08-17T20:40:19.076Z,999.90
2022-08-17T20:42:48.408Z,999.90
2022-08-17T20:45:54.024Z,999.90
2022-08-17T20:48:37.928Z,999.90
2022-08-17T20:51:27.151Z,999.90
2022-08-17T20:54:28.420Z,999.90
2022-08-17T20:57:00.416Z,999.90
2022-08-17T20:59:56.241Z,999.90
2022-08-17T21:02:27.195Z,999.90
2022-08-17T21:05:01.954Z,999.90
2022-08-17T21:07:53.060Z,999.90
2022-08-17T21:10:38.686Z,999.90
2022-08-17T21:13:49.160Z,999.90
2022-08-17T21:16:35.104Z,999.90
2022-08-17T21:19:17.554Z,999.90
2022-08-17T21:21:58.123Z,999.90
2022-08-17T21:24:40.340Z,999.90
2022-08-17T21:27:20.334Z,999.90
2022-08-17T21:30:13.825Z,999.90
2022-08-17T21:32:45.142Z,999.90
2022-08-17T21:35:28.398Z,999.90
2022-08-17T21:38:02.823Z,999.90
2022-08-17T21:40:33.534Z,999.90
2022-08-17T21:43:08.933Z,999.90
2022-08-17T21:45:41.610Z,999.90
2022-08-17T21:48:16.542Z,999.90
2022-08-17T21:50:47.518Z,999.90
2022-08-17T21:53:28.122Z,999.90
2022-08-17T21:55:58.570Z,999.90
2022-08-17T21:58:31.076Z,999.90
2022-08-17T22:01:19.902Z,999.90
2022-08-17T22:03:59.260Z,999.90
2022-08-17T22:06:34.214Z,999.90
2022-08-17T22:09:13.485Z,999.90
2022-08-17T22:12:09.032Z,999.90
2022-08-17T22:14:53.143Z,999.90
2022-08-17T22:17:24.865Z,999.90
2022-08-17T22:19:57.350Z,999.90
2022-08-17T22:22:32.592Z,999.90
2022-08-17T22:25:03.208Z,999.90
2022-08-17T22:27:50.521Z,999.90
2022-08-17T22:30:27.859Z,999.90
2022-08-17T22:32:56.531Z,999.90
2022-08-17T22:35:42.723Z,999.90
2022-08-17T22:38:29.743Z,999.90
2022-08-17T22:41:42.210Z,999.90
2022-08-17T22:44:23.134Z,999.90
2022-08-17T22:46:58.754Z,999.90
2022-08-17T22:49:30.694Z,999.90
2022-08-17T22:52:21.265Z,999.90
2022-08-17T22:55:18.248Z,999.90
2022-08-17T22:58:05.180Z,999.90
2022-08-17T23:00:42.487Z,999.90
2022-08-17T23:03:18.919Z,999.90
2022-08-17T23:05:49.105Z,999.90
2022-08-17T23:08:21.262Z,999.90
2022-08-17T23:10:49.883Z,999.90
2022-08-17T23:13:17.668Z,999.90
2022-08-17T23:15:47.110Z,999.90
2022-08-17T23:18:14.879Z,999.90
2022-08-17T23:20:43.004Z,999.90
2022-08-17T23:23:12.498Z,999.90
2022-08-17T23:25:44.459Z,999.90
2022-08-17T23:28:12.312Z,999.90
2022-08-17T23:30:44.022Z,999.90
2022-08-17T23:33:25.553Z,999.90
2022-08-17T23:35:53.641Z,999.90
2022-08-17T23:38:22.108Z,999.90
2022-08-17T23:40:51.236Z,999.90
2022-08-17T23:43:25.268Z,999.90
2022-08-17T23:45:56.511Z,999.90
2022-08-17T23:48:35.290Z,999.90
2022-08-17T23:51:10.647Z,999.90
2022-08-17T23:53:41.896Z,999.90
2022-08-17T23:56:11.673Z,999.90
2022-08-17T23:58:42.002Z,999.90
